Time;durP1;ratioP1;P1;durP2;ratioP2;P2;SDS_P1;SDS_P2;PMS_P1;PMS_P2;Temp;Humidity;BMP_temperature;BMP_pressure;BME280_temperature;BME280_humidity;BME280_pressure;Samples;Min_cycle;Max_cycle;Signal;HPM_P1;HPM_P2
2021/10/04 00:02:00;;;;;;;14.35;2.92;;;;;;;20.57;39.61;99860.00;4938605;29;20051;-82
2021/10/04 00:04:26;;;;;;;8.68;2.55;;;;;;;20.66;39.58;99862.34;4938789;29;20034;-80
2021/10/04 00:06:51;;;;;;;8.50;2.08;;;;;;;20.73;39.29;99862.31;4938608;29;20036;-82
2021/10/04 00:09:17;;;;;;;5.03;2.10;;;;;;;20.67;39.43;99863.94;4937420;29;20036;-80
2021/10/04 00:11:43;;;;;;;7.65;2.10;;;;;;;20.73;39.31;99873.44;4938459;29;20112;-77
2021/10/04 00:14:08;;;;;;;11.85;4.10;;;;;;;20.75;39.20;99874.59;4938575;29;20434;-81
2021/10/04 00:16:35;;;;;;;7.05;1.95;;;;;;;20.77;38.98;99869.44;4938635;29;20096;-84
2021/10/04 00:19:01;;;;;;;9.40;2.33;;;;;;;20.79;39.14;99874.59;4938462;29;20059;-78
2021/10/04 00:21:27;;;;;;;7.30;1.90;;;;;;;20.80;39.25;99872.59;4938570;29;20106;-84
2021/10/04 00:23:52;;;;;;;10.00;2.40;;;;;;;20.84;38.84;99873.38;4938465;29;20503;-79
2021/10/04 00:26:18;;;;;;;6.07;2.38;;;;;;;20.77;39.21;99879.75;4938361;29;20028;-78
2021/10/04 00:28:44;;;;;;;7.47;2.50;;;;;;;20.78;39.06;99890.47;4938258;29;20031;-83
2021/10/04 00:31:09;;;;;;;6.53;1.92;;;;;;;20.80;39.45;99880.94;4938120;29;20509;-78
2021/10/04 00:33:35;;;;;;;7.05;1.83;;;;;;;20.71;39.12;99893.28;4937843;29;20027;-84
2021/10/04 00:36:00;;;;;;;8.45;2.42;;;;;;;20.68;39.26;99882.94;4938100;29;20035;-82
2021/10/04 00:38:26;;;;;;;8.05;2.95;;;;;;;20.45;39.75;99888.19;4937900;29;20032;-77
2021/10/04 00:40:52;;;;;;;8.30;1.92;;;;;;;20.49;39.40;99898.09;4937923;29;20066;-81
2021/10/04 00:43:19;;;;;;;9.85;2.10;;;;;;;20.49;39.46;99892.53;4938124;29;20043;-76
2021/10/04 00:45:45;;;;;;;6.57;2.05;;;;;;;20.28;39.79;99894.53;4937904;29;20024;-76
2021/10/04 00:48:10;;;;;;;7.28;1.83;;;;;;;20.30;39.85;99895.72;4937851;29;20036;-81
2021/10/04 00:50:36;;;;;;;7.32;1.77;;;;;;;19.97;40.85;99898.94;4937748;29;20099;-77
2021/10/04 00:53:02;;;;;;;8.73;2.30;;;;;;;20.20;40.13;99885.44;4937851;29;20135;-83
2021/10/04 00:55:28;;;;;;;5.80;2.63;;;;;;;20.05;40.67;99898.53;4937709;29;20055;-81
2021/10/04 00:57:56;;;;;;;8.90;2.25;;;;;;;19.92;40.94;99900.09;4937471;29;20088;-83
2021/10/04 01:00:24;;;;;;;5.30;1.80;;;;;;;19.97;40.39;99896.16;4937433;29;20047;-83
2021/10/04 01:02:50;;;;;;;6.97;1.75;;;;;;;20.13;40.33;99908.41;4937748;29;20115;-77
2021/10/04 01:05:16;;;;;;;7.75;1.60;;;;;;;20.11;40.02;99915.56;4937031;29;20386;-81
2021/10/04 01:07:42;;;;;;;5.35;2.17;;;;;;;20.21;40.07;99898.91;4937143;29;20035;-75
2021/10/04 01:10:10;;;;;;;5.00;1.60;;;;;;;20.10;40.31;99905.63;4937284;29;20038;-79
2021/10/04 01:12:39;;;;;;;6.65;2.15;;;;;;;20.22;39.83;99903.25;4937547;29;20030;-77
2021/10/04 01:15:05;;;;;;;7.57;2.50;;;;;;;20.23;40.05;99904.03;4936451;29;20028;-83
2021/10/04 01:17:31;;;;;;;6.18;1.95;;;;;;;20.18;39.79;99915.56;4937404;29;20031;-77
2021/10/04 01:19:57;;;;;;;8.05;2.25;;;;;;;20.16;40.29;99920.69;4937168;29;20123;-78
2021/10/04 01:22:22;;;;;;;11.85;2.22;;;;;;;20.16;40.04;99923.47;4937139;29;20024;-77
2021/10/04 01:24:48;;;;;;;8.40;2.13;;;;;;;20.22;39.83;99919.09;4937047;29;20032;-76
2021/10/04 01:27:14;;;;;;;4.82;1.80;;;;;;;20.23;39.83;99912.38;4937017;29;20027;-76
2021/10/04 01:29:40;;;;;;;5.78;1.70;;;;;;;20.42;39.37;99923.03;4935777;29;20028;-78
2021/10/04 01:32:07;;;;;;;5.28;2.28;;;;;;;20.44;39.39;99928.22;4936931;29;20035;-76
2021/10/04 01:34:33;;;;;;;8.48;2.20;;;;;;;20.40;39.05;99925.44;4937055;29;20031;-83
2021/10/04 01:36:58;;;;;;;7.18;1.88;;;;;;;20.39;39.08;99932.16;4936710;29;20023;-76
2021/10/04 01:39:24;;;;;;;4.55;1.70;;;;;;;20.45;39.16;99924.25;4936812;29;20058;-77
2021/10/04 01:41:50;;;;;;;6.15;1.73;;;;;;;20.45;39.11;99933.38;4936780;29;20032;-77
2021/10/04 01:44:16;;;;;;;8.32;2.33;;;;;;;20.37;39.38;99931.75;4936654;29;20471;-84
2021/10/04 01:46:42;;;;;;;3.35;2.10;;;;;;;20.37;39.31;99933.75;4935501;29;20454;-82
2021/10/04 01:49:07;;;;;;;5.47;1.95;;;;;;;20.36;39.23;99932.97;4936612;29;20102;-78
2021/10/04 01:51:33;;;;;;;5.47;2.40;;;;;;;20.46;39.10;99934.94;4936795;29;20136;-77
2021/10/04 01:53:59;;;;;;;6.97;2.05;;;;;;;20.50;38.96;99941.28;4936537;29;20027;-82
2021/10/04 01:56:24;;;;;;;5.97;2.05;;;;;;;20.56;38.66;99944.47;4936628;29;20027;-77
2021/10/04 01:58:50;;;;;;;7.13;1.40;;;;;;;20.57;38.80;99942.47;4936277;29;20059;-83
2021/10/04 02:01:16;;;;;;;8.70;1.60;;;;;;;20.60;38.79;99936.91;4936653;29;20436;-83
2021/10/04 02:03:41;;;;;;;6.10;1.80;;;;;;;20.65;38.74;99938.50;4936513;29;20024;-82
2021/10/04 02:06:07;;;;;;;12.65;1.80;;;;;;;20.62;38.79;99933.72;4936548;29;20393;-76
2021/10/04 02:08:33;;;;;;;4.63;1.58;;;;;;;20.53;38.87;99931.38;4936374;29;20054;-76
2021/10/04 02:10:59;;;;;;;4.45;1.50;;;;;;;20.58;38.56;99927.41;4936207;29;20028;-77
2021/10/04 02:13:25;;;;;;;7.88;2.38;;;;;;;20.57;38.65;99921.06;4936321;29;20032;-81
2021/10/04 02:15:51;;;;;;;6.95;2.20;;;;;;;20.39;39.07;99923.03;4936271;29;20134;-78
2021/10/04 02:18:18;;;;;;;5.75;1.80;;;;;;;20.36;39.12;99923.84;4936186;29;20034;-76
2021/10/04 02:20:45;;;;;;;5.63;2.10;;;;;;;20.39;39.05;99917.47;4936058;29;20408;-83
2021/10/04 02:23:12;;;;;;;5.35;1.60;;;;;;;20.36;38.97;99923.84;4936507;29;20445;-79
2021/10/04 02:25:40;;;;;;;5.68;1.63;;;;;;;20.20;39.42;99913.97;4936064;29;20032;-84
2021/10/04 02:28:08;;;;;;;8.55;2.20;;;;;;;20.30;39.25;99919.88;4935984;29;20483;-76
2021/10/04 02:30:35;;;;;;;6.90;1.45;;;;;;;20.41;38.94;99917.91;4936010;29;20050;-83
2021/10/04 02:33:00;;;;;;;5.30;1.60;;;;;;;20.23;39.39;99906.81;4936041;29;20086;-82
2021/10/04 02:35:26;;;;;;;8.98;1.90;;;;;;;20.07;39.59;99910.00;4936028;29;20467;-75
2021/10/04 02:37:53;;;;;;;7.20;1.90;;;;;;;20.21;39.37;99914.75;4935833;29;20035;-79
2021/10/04 02:40:20;;;;;;;5.53;1.60;;;;;;;20.20;39.35;99897.31;4934666;29;20082;-83
2021/10/04 02:42:46;;;;;;;7.05;2.40;;;;;;;20.28;39.30;99906.41;4916122;29;20039;-81
2021/10/04 02:45:14;;;;;;;5.50;1.52;;;;;;;20.28;39.21;99911.19;4919093;29;20241;-80
2021/10/04 02:47:41;;;;;;;6.82;1.75;;;;;;;20.40;38.85;99908.78;4922518;29;20134;-81
2021/10/04 02:50:12;;;;;;;4.65;1.50;;;;;;;20.45;38.90;99911.16;4918124;29;20107;-82
2021/10/04 02:52:38;;;;;;;4.38;1.92;;;;;;;20.45;39.04;99907.59;4916842;29;20047;-81
2021/10/04 02:55:04;;;;;;;8.15;2.30;;;;;;;20.32;39.17;99904.41;4916943;29;20107;-84
2021/10/04 02:57:30;;;;;;;8.90;2.13;;;;;;;20.42;38.91;99911.16;4916842;29;20039;-76
2021/10/04 02:59:56;;;;;;;7.65;1.98;;;;;;;20.37;38.99;99909.56;4916406;29;20056;-80
2021/10/04 03:02:23;;;;;;;6.28;2.08;;;;;;;20.42;38.95;99906.41;4916564;29;20112;-76
2021/10/04 03:04:48;;;;;;;3.47;1.70;;;;;;;20.43;39.02;99913.53;4916802;29;20119;-82
2021/10/04 03:07:15;;;;;;;5.07;1.90;;;;;;;20.30;39.39;99901.25;4916526;29;20503;-83
2021/10/04 03:09:41;;;;;;;6.50;2.50;;;;;;;20.41;39.06;99907.59;4916625;29;20032;-76
2021/10/04 03:12:07;;;;;;;6.13;2.08;;;;;;;20.42;39.14;99900.06;4916730;29;20043;-76
2021/10/04 03:14:34;;;;;;;9.73;2.55;;;;;;;20.53;38.87;99902.81;4916522;29;20032;-81
2021/10/04 03:17:01;;;;;;;5.30;1.45;;;;;;;20.54;38.77;99909.94;4916511;29;20028;-76
2021/10/04 03:19:26;;;;;;;6.88;1.73;;;;;;;20.54;38.83;99910.75;4916335;29;20040;-81
2021/10/04 03:21:52;;;;;;;5.28;2.05;;;;;;;20.59;38.79;99918.66;4916435;29;20148;-77
2021/10/04 03:24:17;;;;;;;5.07;1.80;;;;;;;20.67;38.77;99913.88;4916542;29;20508;-76
2021/10/04 03:26:43;;;;;;;7.10;3.22;;;;;;;20.74;38.57;99919.41;4916291;29;20070;-76
2021/10/04 03:29:10;;;;;;;5.97;1.27;;;;;;;20.82;38.48;99923.75;4916205;29;20032;-77
2021/10/04 03:31:40;;;;;;;4.72;1.30;;;;;;;20.77;38.33;99936.06;4919048;29;20114;-79
2021/10/04 03:34:06;;;;;;;5.63;1.42;;;;;;;20.69;38.67;99928.16;4920153;29;20036;-78
2021/10/04 03:36:32;;;;;;;7.18;1.70;;;;;;;20.65;38.71;99922.63;4918920;29;20507;-75
2021/10/04 03:38:57;;;;;;;5.28;1.63;;;;;;;20.64;38.66;99928.59;4920150;29;20123;-81
2021/10/04 03:41:24;;;;;;;4.45;1.67;;;;;;;20.67;38.73;99933.31;4920119;29;20475;-76
2021/10/04 03:43:51;;;;;;;5.43;1.80;;;;;;;20.68;38.59;99927.38;4920091;29;20356;-80
2021/10/04 03:46:17;;;;;;;3.38;1.45;;;;;;;20.68;38.52;99926.56;4919937;29;20160;-81
2021/10/04 03:48:43;;;;;;;6.68;2.15;;;;;;;20.71;38.50;99937.69;4919963;29;20032;-76
2021/10/04 03:51:08;;;;;;;5.70;1.75;;;;;;;20.71;38.45;99931.34;4919930;29;20032;-81
2021/10/04 03:53:34;;;;;;;5.97;1.50;;;;;;;20.69;38.54;99937.28;4919847;29;20039;-78
2021/10/04 03:56:00;;;;;;;7.72;1.92;;;;;;;20.62;38.64;99940.06;4919816;29;20491;-83
2021/10/04 03:58:26;;;;;;;5.45;1.63;;;;;;;20.68;38.52;99949.56;4920228;29;20043;-75
2021/10/04 04:00:51;;;;;;;4.00;1.40;;;;;;;20.67;38.40;99948.00;4919541;29;20530;-78
2021/10/04 04:03:17;;;;;;;4.13;1.30;;;;;;;20.67;38.34;99952.75;4919320;29;20115;-79
2021/10/04 04:05:43;;;;;;;3.88;1.20;;;;;;;20.67;38.32;99950.75;4919501;29;20099;-75
2021/10/04 04:08:08;;;;;;;8.07;1.65;;;;;;;20.59;38.42;99948.41;4919650;29;20443;-79
2021/10/04 04:10:34;;;;;;;6.05;1.73;;;;;;;20.63;38.41;99951.94;4919605;29;20056;-81
2021/10/04 04:13:00;;;;;;;6.43;1.70;;;;;;;20.54;38.58;99946.03;4919358;29;20043;-75
2021/10/04 04:15:25;;;;;;;5.60;1.55;;;;;;;20.62;38.36;99953.16;4919477;29;20028;-83
2021/10/04 04:17:51;;;;;;;2.88;1.27;;;;;;;20.59;38.20;99946.44;4919441;29;20107;-76
2021/10/04 04:20:17;;;;;;;8.60;2.00;;;;;;;20.56;38.48;99943.66;4919202;29;20056;-83
2021/10/04 04:22:43;;;;;;;7.50;1.38;;;;;;;20.48;38.28;99952.00;4919201;29;20032;-81
2021/10/04 04:25:10;;;;;;;4.57;1.55;;;;;;;20.49;38.31;99942.47;4919353;29;20059;-78
2021/10/04 04:27:37;;;;;;;4.57;1.70;;;;;;;20.43;38.57;99944.03;4919244;29;20556;-86
2021/10/04 04:30:07;;;;;;;6.00;1.92;;;;;;;20.43;38.66;99949.59;4919079;29;20410;-78
2021/10/04 04:32:34;;;;;;;6.72;2.03;;;;;;;20.45;38.44;99955.56;4919139;29;20071;-76
2021/10/04 04:35:05;;;;;;;6.88;1.58;;;;;;;20.48;38.41;99949.22;4919045;29;20036;-81
2021/10/04 04:37:35;;;;;;;3.83;1.73;;;;;;;20.43;38.57;99944.03;4918950;29;20522;-82
2021/10/04 04:40:00;;;;;;;;;;;;;;;20.44;38.60;99951.22;4918976;29;20083;-76
2021/10/04 04:42:26;;;;;;;5.22;2.30;;;;;;;20.53;38.34;99952.78;4918419;29;19919;-84
2021/10/04 04:44:52;;;;;;;3.53;1.98;;;;;;;20.52;38.38;99956.75;4918967;29;20024;-83
2021/10/04 04:47:18;;;;;;;3.28;1.35;;;;;;;20.50;38.46;99966.25;4918937;29;20028;-80
2021/10/04 04:49:44;;;;;;;5.30;1.70;;;;;;;20.45;38.69;99960.31;4918577;29;20032;-76
2021/10/04 04:52:09;;;;;;;6.82;2.00;;;;;;;20.54;38.38;99965.47;4918624;29;20083;-81
2021/10/04 04:54:35;;;;;;;6.90;1.95;;;;;;;20.43;38.63;99957.91;4918558;29;20032;-76
2021/10/04 04:57:01;;;;;;;4.75;1.40;;;;;;;20.46;38.50;99959.91;4918550;29;20055;-74
2021/10/04 04:59:28;;;;;;;7.20;1.98;;;;;;;20.47;38.56;99963.47;4918358;29;20075;-78
2021/10/04 05:01:53;;;;;;;6.00;1.63;;;;;;;20.50;38.47;99974.59;4918617;29;20501;-83
2021/10/04 05:04:19;;;;;;;7.38;1.65;;;;;;;20.59;38.38;99967.84;4918534;29;20028;-82
2021/10/04 05:06:45;;;;;;;7.95;2.33;;;;;;;20.57;38.26;99976.56;4918373;29;20063;-82
2021/10/04 05:09:12;;;;;;;5.38;1.98;;;;;;;20.54;38.35;99984.88;4918325;29;20032;-82
2021/10/04 05:11:38;;;;;;;6.30;1.95;;;;;;;20.47;38.50;99986.47;4918128;29;20036;-75
2021/10/04 05:14:04;;;;;;;10.38;1.77;;;;;;;20.52;38.40;99984.50;4918371;29;20043;-83
2021/10/04 05:16:30;;;;;;;6.07;1.50;;;;;;;20.49;38.48;99981.34;4917311;29;20124;-75
2021/10/04 05:18:55;;;;;;;2.50;1.60;;;;;;;20.39;38.62;99982.09;4918372;29;20032;-76
2021/10/04 05:21:21;;;;;;;5.93;1.75;;;;;;;20.49;38.44;99986.88;4918637;29;20479;-76
2021/10/04 05:23:47;;;;;;;7.35;2.00;;;;;;;20.49;38.46;99989.66;4918419;29;20039;-83
2021/10/04 05:26:13;;;;;;;4.88;2.05;;;;;;;20.49;38.41;99988.88;4917241;29;20028;-82
2021/10/04 05:28:38;;;;;;;7.18;2.20;;;;;;;20.45;38.39;99988.06;4916235;29;20126;-84
2021/10/04 05:31:04;;;;;;;5.15;1.27;;;;;;;20.28;38.80;99984.09;4918062;29;20092;-79
2021/10/04 05:33:30;;;;;;;8.82;2.05;;;;;;;20.32;38.65;99987.63;4918004;29;20037;-76
2021/10/04 05:35:56;;;;;;;6.03;1.58;;;;;;;20.26;38.78;99988.47;4917815;29;20539;-76
2021/10/04 05:38:22;;;;;;;4.18;1.55;;;;;;;20.27;38.86;99990.84;4917715;29;20128;-83
2021/10/04 05:40:48;;;;;;;5.85;1.92;;;;;;;20.21;38.88;99982.09;4917883;29;20028;-84
2021/10/04 05:43:14;;;;;;;6.68;1.70;;;;;;;20.29;38.72;99988.44;4917822;29;20028;-81
2021/10/04 05:45:40;;;;;;;4.55;1.63;;;;;;;20.23;38.80;99982.50;4916504;29;20032;-84
2021/10/04 05:48:05;;;;;;;5.20;2.15;;;;;;;20.22;38.70;99989.22;4917404;29;20028;-81
2021/10/04 05:50:31;;;;;;;3.95;1.60;;;;;;;20.13;38.99;99985.28;4917469;29;20027;-78
2021/10/04 05:52:57;;;;;;;9.90;2.97;;;;;;;20.17;38.84;99983.28;4917251;29;20032;-81
2021/10/04 05:55:22;;;;;;;4.20;1.50;;;;;;;20.19;38.64;99995.59;4917708;29;20461;-83
2021/10/04 05:57:48;;;;;;;4.68;1.65;;;;;;;20.11;38.95;99988.47;4917801;29;20043;-75
2021/10/04 06:00:15;;;;;;;4.13;1.70;;;;;;;20.16;38.82;99995.56;4916108;29;20493;-77
2021/10/04 06:02:41;;;;;;;3.78;1.80;;;;;;;20.08;38.95;99986.47;4917576;29;20055;-77
2021/10/04 06:05:08;;;;;;;4.20;1.38;;;;;;;20.10;38.86;99980.50;4917454;29;20479;-84
2021/10/04 06:07:34;;;;;;;4.43;1.90;;;;;;;20.07;38.86;99986.84;4917580;29;20028;-84
2021/10/04 06:09:59;;;;;;;4.07;1.73;;;;;;;20.07;38.83;99986.84;4917548;29;20032;-77
2021/10/04 06:12:28;;;;;;;6.30;1.77;;;;;;;20.01;39.20;99992.00;4917266;29;20035;-75
2021/10/04 06:14:58;;;;;;;6.10;1.60;;;;;;;20.08;38.90;99996.75;4917197;29;20039;-82
2021/10/04 06:17:25;;;;;;;7.25;1.58;;;;;;;20.07;38.87;100006.28;4917142;29;20475;-82
2021/10/04 06:19:51;;;;;;;6.57;1.63;;;;;;;20.11;38.87;99993.22;4918240;29;20154;-79
2021/10/04 06:22:17;;;;;;;11.02;1.58;;;;;;;20.10;38.72;99999.91;4916499;29;20035;-77
2021/10/04 06:24:43;;;;;;;3.83;1.75;;;;;;;20.04;38.99;100010.63;4917146;29;20107;-77
2021/10/04 06:27:09;;;;;;;6.50;2.38;;;;;;;20.07;38.81;100009.03;4917140;29;20103;-78
2021/10/04 06:29:35;;;;;;;3.67;1.70;;;;;;;20.11;38.67;100009.84;4917162;29;20028;-75
2021/10/04 06:32:00;;;;;;;4.35;1.40;;;;;;;20.07;38.75;100009.84;4916988;29;20024;-74
2021/10/04 06:34:26;;;;;;;5.80;1.23;;;;;;;19.85;39.12;100008.22;4916772;29;20028;-85
2021/10/04 06:36:52;;;;;;;5.15;1.25;;;;;;;19.91;39.05;100012.97;4915513;29;20234;-75
2021/10/04 06:39:17;;;;;;;6.75;1.70;;;;;;;19.96;39.00;100006.28;4916640;29;20115;-80
2021/10/04 06:41:43;;;;;;;4.85;1.40;;;;;;;20.03;38.91;100011.81;4917317;29;20028;-74
2021/10/04 06:44:09;;;;;;;6.60;1.52;;;;;;;20.06;38.82;100013.81;4917015;29;20024;-77
2021/10/04 06:46:37;;;;;;;4.47;1.77;;;;;;;20.10;38.63;100019.34;4917092;29;20036;-76
2021/10/04 06:49:04;;;;;;;3.65;1.25;;;;;;;20.06;38.89;100015.78;4917075;29;20575;-76
2021/10/04 06:51:30;;;;;;;12.27;1.73;;;;;;;19.86;39.26;100010.59;4916852;29;20038;-77
2021/10/04 06:53:55;;;;;;;5.25;2.20;;;;;;;19.99;39.07;100007.44;4916997;29;20032;-79
2021/10/04 06:56:21;;;;;;;6.25;1.70;;;;;;;20.02;38.91;100006.66;4916831;29;20364;-86
2021/10/04 06:58:47;;;;;;;3.80;1.73;;;;;;;20.03;39.04;100002.72;4916944;29;20111;-74
2021/10/04 07:01:12;;;;;;;3.45;1.73;;;;;;;19.88;39.32;100011.00;4917384;29;20039;-88
2021/10/04 07:03:38;;;;;;;7.18;1.63;;;;;;;19.94;39.33;100014.16;4917147;29;20032;-83
2021/10/04 07:06:04;;;;;;;6.78;2.15;;;;;;;19.84;39.44;100017.72;4917691;29;20483;-83
2021/10/04 07:08:30;;;;;;;4.25;1.40;;;;;;;19.93;39.35;100020.91;4920613;29;20074;-80
2021/10/04 07:10:56;;;;;;;5.13;1.17;;;;;;;19.70;39.95;100024.03;4916195;29;20039;-80
2021/10/04 07:13:21;;;;;;;5.47;1.83;;;;;;;19.84;39.60;100020.50;4908661;29;20047;-86
2021/10/04 07:15:47;;;;;;;3.85;1.55;;;;;;;19.94;39.50;100022.47;4899004;29;20108;-73
2021/10/04 07:18:13;;;;;;;5.18;1.67;;;;;;;19.91;39.68;100028.81;4899136;29;20036;-79
2021/10/04 07:20:38;;;;;;;6.22;1.85;;;;;;;20.12;39.30;100034.41;4897438;29;20142;-82
2021/10/04 07:23:04;;;;;;;3.47;1.50;;;;;;;20.22;39.13;100033.63;4898124;29;20589;-79
2021/10/04 07:25:34;;;;;;;7.55;1.40;;;;;;;20.16;39.31;100026.88;4896223;29;20033;-75
2021/10/04 07:28:01;;;;;;;4.60;1.33;;;;;;;20.28;39.12;100036.00;4896751;29;20177;-79
2021/10/04 07:30:27;;;;;;;6.55;1.85;;;;;;;19.88;40.21;100044.28;4897356;29;20040;-77
2021/10/04 07:32:55;;;;;;;6.97;1.33;;;;;;;19.75;40.63;100039.50;4898636;29;20033;-89
2021/10/04 07:35:22;;;;;;;6.65;1.38;;;;;;;19.70;40.83;100048.16;4897476;29;20064;-81
2021/10/04 07:37:47;;;;;;;10.40;2.00;;;;;;;19.57;41.35;100042.19;4898045;29;20039;-78
2021/10/04 07:40:13;;;;;;;7.00;1.88;;;;;;;19.59;41.46;100040.63;4897945;29;20466;-86
2021/10/04 07:42:41;;;;;;;9.90;2.47;;;;;;;19.61;41.44;100045.78;4896386;29;20060;-80
2021/10/04 07:45:08;;;;;;;8.10;1.45;;;;;;;19.77;41.24;100050.97;4896685;29;20115;-81
2021/10/04 07:47:33;;;;;;;10.10;2.60;;;;;;;19.81;41.33;100049.00;4896789;29;20395;-77
2021/10/04 07:49:59;;;;;;;3.08;1.25;;;;;;;19.77;41.29;100050.97;4896901;29;20036;-78
2021/10/04 07:52:25;;;;;;;8.35;1.77;;;;;;;19.83;41.31;100055.75;4897435;29;20033;-75
2021/10/04 07:54:50;;;;;;;9.10;1.67;;;;;;;20.13;40.85;100065.72;4897707;29;20152;-80
2021/10/04 07:57:16;;;;;;;8.32;1.88;;;;;;;20.11;40.55;100065.31;4897867;29;20036;-78
2021/10/04 07:59:42;;;;;;;5.93;1.50;;;;;;;20.73;39.40;100062.19;4911884;29;20504;-85
2021/10/04 08:02:09;;;;;;;8.57;1.55;;;;;;;20.82;39.04;100061.78;4897638;29;20037;-78
2021/10/04 08:04:35;;;;;;;13.77;1.75;;;;;;;21.00;38.71;100062.53;4897975;29;20037;-78
2021/10/04 08:07:01;;;;;;;5.65;2.50;;;;;;;21.08;38.58;100064.09;4897912;29;20092;-77
2021/10/04 08:09:27;;;;;;;6.80;1.50;;;;;;;21.20;38.60;100057.34;4897616;29;20099;-83
2021/10/04 08:11:52;;;;;;;11.13;2.83;;;;;;;21.22;38.31;100054.94;4897747;29;20037;-78
2021/10/04 08:14:18;;;;;;;8.82;2.00;;;;;;;21.30;38.44;100056.53;4897378;29;20544;-80
2021/10/04 08:16:43;;;;;;;9.27;2.17;;;;;;;21.44;38.34;100055.69;4900627;29;20039;-78
2021/10/04 08:19:09;;;;;;;8.82;1.90;;;;;;;21.38;38.56;100060.06;4898614;29;20077;-78
2021/10/04 08:21:35;;;;;;;12.73;2.42;;;;;;;21.55;38.19;100057.25;4900613;29;20033;-88
2021/10/04 08:24:01;;;;;;;8.85;2.10;;;;;;;21.71;37.85;100062.31;4901428;29;20037;-87
2021/10/04 08:26:28;;;;;;;3.78;1.17;;;;;;;21.74;37.96;100052.38;4900857;29;20067;-85
2021/10/04 08:28:54;;;;;;;5.50;2.03;;;;;;;21.95;37.72;100059.81;4900650;29;20085;-78
2021/10/04 08:31:21;;;;;;;10.25;2.10;;;;;;;21.84;37.81;100062.66;4900814;29;20028;-81
2021/10/04 08:33:47;;;;;;;7.38;1.33;;;;;;;21.76;37.93;100056.31;4901087;29;20117;-81
2021/10/04 08:36:13;;;;;;;15.75;2.75;;;;;;;21.51;38.47;100066.78;4899154;29;20384;-82
2021/10/04 08:38:39;;;;;;;7.55;1.80;;;;;;;21.03;39.33;100070.88;4900501;29;20029;-81
2021/10/04 08:41:04;;;;;;;11.93;2.63;;;;;;;21.03;39.41;100078.41;4900291;29;20107;-84
2021/10/04 08:43:31;;;;;;;10.30;1.95;;;;;;;21.18;39.12;100082.75;4901165;29;20061;-85
2021/10/04 08:46:00;;;;;;;7.20;2.03;;;;;;;21.18;39.12;100073.63;4899163;29;20025;-82
2021/10/04 08:48:27;;;;;;;4.63;1.40;;;;;;;21.24;38.93;100083.94;4900348;29;20420;-86
2021/10/04 08:50:55;;;;;;;11.75;2.45;;;;;;;21.31;38.99;100075.59;4900139;29;20037;-80
2021/10/04 08:53:21;;;;;;;16.85;3.42;;;;;;;21.18;39.15;100073.63;4913141;29;20083;-80
2021/10/04 08:55:47;;;;;;;11.98;2.60;;;;;;;21.33;38.68;100077.97;4908681;29;20491;-79
2021/10/04 08:58:13;;;;;;;7.28;1.50;;;;;;;21.36;38.93;100081.94;4909108;29;20051;-81
2021/10/04 09:00:39;;;;;;;17.60;3.53;;;;;;;21.26;39.20;100080.75;4906918;29;20780;-82
2021/10/04 09:03:05;;;;;;;8.27;2.80;;;;;;;21.42;38.91;100080.31;4899590;29;20507;-84
2021/10/04 09:05:32;;;;;;;7.82;2.15;;;;;;;21.55;38.76;100079.47;4915939;29;20035;-82
2021/10/04 09:08:02;;;;;;;21.60;4.05;;;;;;;21.68;39.10;100081.78;4918259;29;20115;-84
2021/10/04 09:10:32;;;;;;;12.20;2.58;;;;;;;21.62;39.09;100078.66;4907041;29;20032;-88
2021/10/04 09:13:09;;;;;;;13.65;2.42;;;;;;;21.98;38.45;100073.69;4900424;29;20032;-86
2021/10/04 09:15:46;;;;;;;15.43;3.50;;;;;;;21.89;38.52;100076.13;4900545;29;20043;-89
2021/10/04 09:18:14;;;;;;;12.18;2.20;;;;;;;22.05;38.31;100078.41;4902138;29;20020;-82
2021/10/04 09:21:00;;;;;;;9.00;2.10;;;;;;;22.04;38.46;100072.06;4899782;29;20087;-85
2021/10/04 09:23:45;;;;;;;11.75;3.28;;;;;;;21.85;38.61;100064.25;4898132;29;20065;-81
2021/10/04 09:26:35;;;;;;;10.95;2.10;;;;;;;21.83;38.48;100061.06;4898036;29;20074;-80
2021/10/04 09:29:09;;;;;;;9.48;1.60;;;;;;;22.02;38.23;100060.56;4898160;29;20079;-79
2021/10/04 09:31:40;;;;;;;10.07;2.78;;;;;;;22.26;38.13;100066.41;4899206;29;20056;-84
2021/10/04 09:34:11;;;;;;;11.18;2.38;;;;;;;22.37;38.18;100062.34;4899218;29;20036;-79
2021/10/04 09:36:50;;;;;;;23.75;3.53;;;;;;;22.13;38.15;100066.06;4899372;29;20416;-88
2021/10/04 09:39:33;;;;;;;23.80;3.50;;;;;;;21.90;38.54;100066.59;4898178;29;20029;-80
2021/10/04 09:42:08;;;;;;;6.82;1.38;;;;;;;21.74;38.65;100067.06;4899218;29;20057;-83
2021/10/04 09:44:57;;;;;;;9.77;2.53;;;;;;;21.98;38.43;100073.69;4901297;29;20115;-85
2021/10/04 09:47:34;;;;;;;3.90;1.40;;;;;;;22.06;37.99;100072.44;4911331;29;20029;-79
2021/10/04 09:50:35;;;;;;;7.07;1.60;;;;;;;22.23;37.81;100067.22;4909543;29;20039;-80
2021/10/04 09:53:03;;;;;;;20.10;3.05;;;;;;;22.57;37.19;100070.91;4842518;29;20058;-80
2021/10/04 09:55:37;;;;;;;4.50;1.50;;;;;;;22.53;37.45;100067.38;4893700;29;20040;-84
2021/10/04 09:58:08;;;;;;;12.82;2.85;;;;;;;22.85;36.92;100069.09;4909696;29;20620;-83
2021/10/04 10:00:48;;;;;;;3.63;1.08;;;;;;;22.65;37.27;100072.44;4909727;29;20570;-82
2021/10/04 10:03:17;;;;;;;13.95;2.85;;;;;;;22.41;37.29;100065.88;4909173;29;20487;-81
2021/10/04 10:05:50;;;;;;;10.13;2.25;;;;;;;22.65;37.04;100068.84;4906322;29;20024;-80
2021/10/04 10:08:16;;;;;;;18.67;3.10;;;;;;;22.94;36.41;100067.41;4906369;29;20032;-84
2021/10/04 10:10:43;;;;;;;10.60;1.90;;;;;;;23.08;36.50;100066.50;4903730;29;20021;-84
2021/10/04 10:13:10;;;;;;;5.30;2.00;;;;;;;23.30;36.30;100075.41;4908758;29;20119;-84
2021/10/04 10:15:37;;;;;;;12.48;2.80;;;;;;;23.31;36.49;100073.41;4908916;29;20087;-82
2021/10/04 10:18:28;;;;;;;19.33;3.85;;;;;;;23.26;36.07;100078.22;4910509;29;20467;-85
2021/10/04 10:21:05;;;;;;;16.73;3.38;;;;;;;23.27;35.94;100073.44;4909508;29;20072;-79
2021/10/04 10:24:00;;;;;;;5.78;2.17;;;;;;;23.15;36.23;100079.56;4908854;29;20035;-80
2021/10/04 10:26:36;;;;;;;19.30;3.28;;;;;;;23.28;36.07;100077.81;4901115;29;20048;-84
2021/10/04 10:29:17;;;;;;;9.95;1.75;;;;;;;23.50;35.57;100076.38;4908013;29;20054;-81
2021/10/04 10:31:52;;;;;;;11.05;2.20;;;;;;;23.53;35.82;100067.16;4909042;29;20407;-84
2021/10/04 10:34:29;;;;;;;5.03;1.20;;;;;;;23.59;36.00;100072.28;4908556;29;20027;-89
2021/10/04 10:37:08;;;;;;;7.20;2.08;;;;;;;23.66;35.84;100067.44;4909613;29;20427;-82
2021/10/04 10:39:47;;;;;;;9.35;1.75;;;;;;;23.50;36.20;100058.81;4910490;29;20032;-86
2021/10/04 10:42:31;;;;;;;25.65;3.80;;;;;;;23.66;35.87;100061.88;4908144;29;20020;-81
2021/10/04 10:44:57;;;;;;;7.40;2.20;;;;;;;23.93;35.35;100069.47;4906512;29;20032;-81
2021/10/04 10:47:38;;;;;;;12.10;2.47;;;;;;;23.98;35.57;100066.22;4911804;29;20506;-81
2021/10/04 10:50:26;;;;;;;8.32;1.88;;;;;;;23.74;35.47;100062.56;4908287;29;20566;-81
2021/10/04 10:52:57;;;;;;;6.72;1.90;;;;;;;23.89;35.38;100065.94;4905598;29;20069;-85
2021/10/04 10:55:23;;;;;;;9.95;2.67;;;;;;;24.13;34.89;100062.00;4906283;29;20032;-79
2021/10/04 10:57:51;;;;;;;8.07;1.95;;;;;;;24.27;34.69;100061.78;4906542;29;20033;-80
2021/10/04 11:00:23;;;;;;;10.98;2.83;;;;;;;24.42;34.62;100065.16;4905161;29;20056;-84
2021/10/04 11:03:17;;;;;;;13.30;2.90;;;;;;;24.32;34.88;100061.31;4907686;29;20550;-81
2021/10/04 11:05:42;;;;;;;7.88;2.30;;;;;;;24.43;34.74;100061.16;4904951;29;20051;-81
2021/10/04 11:08:23;;;;;;;9.35;2.70;;;;;;;24.59;34.52;100064.06;4905730;29;20614;-82
2021/10/04 11:10:49;;;;;;;11.20;2.90;;;;;;;24.63;34.61;100073.16;4907138;29;20488;-84
2021/10/04 11:13:33;;;;;;;8.63;1.75;;;;;;;24.63;34.21;100067.59;4906948;29;20210;-81
2021/10/04 11:16:04;;;;;;;9.98;1.67;;;;;;;24.70;33.97;100071.47;4907150;29;20032;-79
2021/10/04 11:18:44;;;;;;;9.02;2.17;;;;;;;24.60;34.43;100057.28;4906217;29;20107;-80
2021/10/04 11:21:13;;;;;;;5.53;2.30;;;;;;;24.58;34.20;100059.72;4903736;29;20081;-79
2021/10/04 11:23:47;;;;;;;12.10;3.15;;;;;;;24.39;34.52;100051.25;4907144;29;20036;-82
2021/10/04 11:26:19;;;;;;;7.43;1.85;;;;;;;24.42;34.16;100047.63;4905333;29;20052;-85
2021/10/04 11:28:48;;;;;;;15.88;3.05;;;;;;;24.67;34.31;100055.56;4908093;29;20021;-79
2021/10/04 11:31:16;;;;;;;9.48;2.15;;;;;;;24.74;33.94;100049.88;4905578;29;20072;-80
2021/10/04 11:33:55;;;;;;;11.32;2.17;;;;;;;25.09;33.96;100054.84;4908380;29;20025;-82